createdAt,value
2017-09-28T00:01:33.093Z,102271.08
2017-09-28T00:04:01.431Z,102272.11
2017-09-28T00:06:29.788Z,102269.52
2017-09-28T00:08:58.851Z,102266.64
2017-09-28T00:11:27.186Z,102270.98
2017-09-28T00:13:55.513Z,102267.55
2017-09-28T00:16:23.827Z,102273.77
2017-09-28T00:18:52.889Z,102270.45
2017-09-28T00:21:21.199Z,102266.19
2017-09-28T00:23:50.273Z,102263.19
2017-09-28T00:26:18.608Z,102266.18
2017-09-28T00:28:46.930Z,102267.21
2017-09-28T00:31:15.244Z,102262.34
2017-09-28T00:33:44.331Z,102269.48
2017-09-28T00:36:12.647Z,102267.13
2017-09-28T00:38:40.957Z,102268.89
2017-09-28T00:41:09.282Z,102265.78
2017-09-28T00:43:37.609Z,102254.48
2017-09-28T00:46:05.906Z,102259.98
2017-09-28T00:48:34.232Z,102250.11
2017-09-28T00:51:03.306Z,102244.92
2017-09-28T00:53:31.606Z,102241.59
2017-09-28T00:55:59.928Z,102247.09
2017-09-28T00:58:28.232Z,102247.70
2017-09-28T01:00:56.554Z,102246.87
2017-09-28T01:03:24.882Z,102247.48
2017-09-28T01:05:53.360Z,102248.84
2017-09-28T01:08:21.676Z,102255.98
2017-09-28T01:10:50.000Z,102248.00
2017-09-28T01:13:19.062Z,102248.55
2017-09-28T01:15:47.396Z,102245.95
2017-09-28T01:18:15.773Z,102254.14
2017-09-28T01:20:44.103Z,102250.52
2017-09-28T01:23:12.434Z,102246.47
2017-09-28T01:25:40.759Z,102247.09
2017-09-28T01:28:09.531Z,102240.88
2017-09-28T01:30:37.852Z,102243.86
2017-09-28T01:33:06.164Z,102242.62
2017-09-28T01:35:35.236Z,102240.95
2017-09-28T01:38:03.562Z,102235.25
2017-09-28T01:40:31.884Z,102238.45
2017-09-28T01:43:00.190Z,102239.49
2017-09-28T01:45:28.509Z,102234.72
2017-09-28T01:47:56.950Z,102236.36
2017-09-28T01:50:25.870Z,102233.77
2017-09-28T01:52:54.956Z,102237.70
2017-09-28T01:55:23.300Z,102235.43
2017-09-28T01:57:51.598Z,102229.00
2017-09-28T02:00:19.916Z,102224.95
2017-09-28T02:02:48.242Z,102217.08
2017-09-28T02:05:16.576Z,102218.52
2017-09-28T02:07:45.646Z,102218.72
2017-09-28T02:10:14.012Z,102221.00
2017-09-28T02:12:42.433Z,102223.69
2017-09-28T02:15:10.737Z,102222.66
2017-09-28T02:17:39.059Z,102214.68
2017-09-28T02:20:07.499Z,102209.81
2017-09-28T02:22:35.814Z,102202.77
2017-09-28T02:25:04.132Z,102209.18
2017-09-28T02:27:32.446Z,102214.34
2017-09-28T02:30:00.743Z,102226.17
2017-09-28T02:32:29.058Z,102229.70
2017-09-28T02:34:57.361Z,102231.77
2017-09-28T02:37:25.678Z,102230.33
2017-09-28T02:39:54.013Z,102226.60
2017-09-28T02:42:22.317Z,102226.09
2017-09-28T02:44:51.414Z,102230.96
2017-09-28T02:47:20.502Z,102228.06
2017-09-28T02:49:48.812Z,102227.55
2017-09-28T02:52:17.887Z,102223.52
2017-09-28T02:54:46.971Z,102218.12
2017-09-28T02:57:15.280Z,102219.78
2017-09-28T02:59:44.352Z,102228.80
2017-09-28T03:02:12.698Z,102230.36
2017-09-28T03:04:41.013Z,102234.88
2017-09-28T03:07:09.311Z,102233.35
2017-09-28T03:09:37.626Z,102239.98
2017-09-28T03:12:05.938Z,102232.19
2017-09-28T03:14:34.255Z,102227.67
2017-09-28T03:17:02.566Z,102234.72
2017-09-28T03:19:30.864Z,102227.47
2017-09-28T03:21:59.162Z,102232.34
2017-09-28T03:24:27.492Z,102219.80
2017-09-28T03:26:56.575Z,102221.66
2017-09-28T03:29:24.872Z,102221.66
2017-09-28T03:31:53.962Z,102230.89
2017-09-28T03:34:22.276Z,102227.47
2017-09-28T03:36:50.662Z,102223.42
2017-09-28T03:39:18.975Z,102219.06
2017-09-28T03:41:47.273Z,102211.39
2017-09-28T03:44:15.737Z,102215.83
2017-09-28T03:46:44.039Z,102214.98
2017-09-28T03:49:12.361Z,102219.42
2017-09-28T03:51:41.446Z,102213.73
2017-09-28T03:54:10.538Z,102211.44
2017-09-28T03:56:38.839Z,102210.07
2017-09-28T03:59:07.929Z,102215.34
2017-09-28T04:01:37.003Z,102213.69
2017-09-28T04:04:05.323Z,102207.87
2017-09-28T04:06:33.759Z,102208.58
2017-09-28T04:09:02.097Z,102208.98
2017-09-28T04:11:30.422Z,102215.52
2017-09-28T04:13:58.735Z,102203.41
2017-09-28T04:16:27.825Z,102205.69
2017-09-28T04:18:56.144Z,102202.26
2017-09-28T04:21:24.458Z,102201.33
2017-09-28T04:23:52.763Z,102205.36
2017-09-28T04:26:21.082Z,102205.47
2017-09-28T04:28:49.396Z,102208.16
2017-09-28T04:31:17.695Z,102215.70
2017-09-28T04:33:45.997Z,102210.92
2017-09-28T04:36:14.331Z,102215.48
2017-09-28T04:38:42.647Z,102205.73
2017-09-28T04:41:10.964Z,102204.69
2017-09-28T04:43:40.053Z,102211.64
2017-09-28T04:46:09.119Z,102207.92
2017-09-28T04:48:37.436Z,102212.37
2017-09-28T04:51:06.595Z,102219.41
2017-09-28T04:53:34.907Z,102222.42
2017-09-28T04:56:03.211Z,102231.75
2017-09-28T04:58:32.321Z,102225.44
2017-09-28T05:01:00.654Z,102231.75
2017-09-28T05:03:28.983Z,102238.06
2017-09-28T05:05:57.304Z,102239.73
2017-09-28T05:08:25.616Z,102243.34
2017-09-28T05:10:53.937Z,102243.42
2017-09-28T05:13:22.276Z,102237.72
2017-09-28T05:15:50.682Z,102236.67
2017-09-28T05:18:19.749Z,102241.64
2017-09-28T05:20:48.099Z,102243.91
2017-09-28T05:23:16.408Z,102242.47
2017-09-28T05:25:44.757Z,102239.90
2017-09-28T05:28:13.054Z,102239.68
2017-09-28T05:30:41.359Z,102238.75
2017-09-28T05:33:09.669Z,102234.08
2017-09-28T05:35:38.727Z,102238.86
2017-09-28T05:38:07.039Z,102244.02
2017-09-28T05:40:36.105Z,102248.47
2017-09-28T05:43:04.452Z,102251.89
2017-09-28T05:45:32.776Z,102253.98
2017-09-28T05:48:01.085Z,102262.24
2017-09-28T05:50:30.919Z,102266.41
2017-09-28T05:52:59.220Z,102259.03
2017-09-28T05:55:27.531Z,102267.63
2017-09-28T05:57:55.836Z,102266.80
2017-09-28T06:00:24.154Z,102264.74
2017-09-28T06:02:52.515Z,102265.55
2017-09-28T06:05:21.642Z,102267.63
2017-09-28T06:07:49.948Z,102266.70
2017-09-28T06:10:18.295Z,102274.03
2017-09-28T06:12:46.623Z,102276.53
2017-09-28T06:15:14.923Z,102287.72
2017-09-28T06:17:43.249Z,102292.48
2017-09-28T06:20:11.558Z,102278.71
2017-09-28T06:22:39.957Z,102274.45
2017-09-28T06:25:08.259Z,102281.69
2017-09-28T06:27:36.582Z,102284.30
2017-09-28T06:30:04.892Z,102278.59
2017-09-28T06:32:33.247Z,102281.94
2017-09-28T06:35:01.577Z,102278.83
2017-09-28T06:37:29.887Z,102278.61
2017-09-28T06:39:58.975Z,102276.31
2017-09-28T06:42:28.055Z,102276.29
2017-09-28T06:44:56.364Z,102278.73
2017-09-28T06:47:25.435Z,102277.59
2017-09-28T06:49:53.761Z,102278.70
2017-09-28T06:52:22.065Z,102272.27
2017-09-28T06:54:50.363Z,102273.48
2017-09-28T06:57:19.452Z,102275.45
2017-09-28T06:59:47.853Z,102278.66
2017-09-28T07:02:16.171Z,102276.77
2017-09-28T07:04:45.256Z,102280.06
2017-09-28T07:07:14.343Z,102285.77
2017-09-28T07:09:42.657Z,102293.52
2017-09-28T07:12:11.736Z,102289.58
2017-09-28T07:14:40.824Z,102305.52
2017-09-28T07:17:09.901Z,102297.97
2017-09-28T07:19:38.221Z,102302.42
2017-09-28T07:22:07.336Z,102299.53
2017-09-28T07:24:36.405Z,102297.39
2017-09-28T07:27:04.753Z,102296.04
2017-09-28T07:29:33.060Z,102287.97
2017-09-28T07:32:01.375Z,102290.15
2017-09-28T07:34:30.485Z,102298.73
2017-09-28T07:36:58.806Z,102296.88
2017-09-28T07:39:27.141Z,102297.90
2017-09-28T07:41:56.264Z,102305.55
2017-09-28T07:44:24.567Z,102312.38
2017-09-28T07:46:52.883Z,102310.74
2017-09-28T07:49:21.212Z,102301.74
2017-09-28T07:51:49.537Z,102295.84
2017-09-28T07:54:17.857Z,102302.06
2017-09-28T07:56:46.171Z,102306.52
2017-09-28T07:59:14.473Z,102297.92
2017-09-28T08:01:42.806Z,102308.18
2017-09-28T08:04:11.117Z,102316.03
2017-09-28T08:06:39.429Z,102317.79
2017-09-28T08:09:07.757Z,102328.27
2017-09-28T08:11:36.072Z,102331.59
2017-09-28T08:14:04.393Z,102325.28
2017-09-28T08:16:33.710Z,102331.53
2017-09-28T08:19:02.777Z,102328.84
2017-09-28T08:21:31.091Z,102329.03
2017-09-28T08:24:00.159Z,102331.11
2017-09-28T08:26:28.594Z,102330.59
2017-09-28T08:28:56.933Z,102330.92
2017-09-28T08:31:25.249Z,102328.26
2017-09-28T08:33:53.568Z,102329.50
2017-09-28T08:36:21.894Z,102323.29
2017-09-28T08:38:51.654Z,102328.58
2017-09-28T08:41:19.970Z,102332.42
2017-09-28T08:43:48.309Z,102334.38
2017-09-28T08:46:16.606Z,102328.28
2017-09-28T08:48:44.910Z,102313.38
2017-09-28T08:51:13.299Z,102317.03
2017-09-28T08:53:41.626Z,102309.08
2017-09-28T08:56:09.938Z,102318.41
2017-09-28T08:58:38.258Z,102319.55
2017-09-28T09:01:07.326Z,102318.94
2017-09-28T09:03:35.673Z,102313.66
2017-09-28T09:06:03.970Z,102315.42
2017-09-28T09:08:32.275Z,102306.41
2017-09-28T09:11:00.613Z,102295.86
2017-09-28T09:13:28.931Z,102295.27
2017-09-28T09:15:57.269Z,102284.53
2017-09-28T09:18:25.603Z,102281.11
2017-09-28T09:20:53.901Z,102275.55
2017-09-28T09:23:22.212Z,102276.59
2017-09-28T09:25:50.530Z,102277.68
2017-09-28T09:28:18.934Z,102274.09
2017-09-28T09:30:47.267Z,102274.97
2017-09-28T09:33:15.568Z,102274.33
2017-09-28T09:35:43.893Z,102280.07
2017-09-28T09:38:13.008Z,102281.00
2017-09-28T09:40:42.147Z,102272.62
2017-09-28T09:43:10.478Z,102277.28
2017-09-28T09:45:39.107Z,102275.97
2017-09-28T09:48:07.426Z,102275.97
2017-09-28T09:50:35.759Z,102277.23
2017-09-28T09:53:04.087Z,102281.69
2017-09-28T09:55:32.400Z,102280.65
2017-09-28T09:58:01.494Z,102276.08
2017-09-28T10:00:29.806Z,102281.72
2017-09-28T10:02:58.104Z,102281.39
2017-09-28T10:05:26.428Z,102276.70
2017-09-28T10:08:02.050Z,102272.12
2017-09-28T10:10:33.960Z,102275.32
2017-09-28T10:13:16.485Z,102261.27
2017-09-28T10:15:51.952Z,102268.02
2017-09-28T10:18:20.276Z,102266.62
2017-09-28T10:20:48.595Z,102269.17
2017-09-28T10:23:16.917Z,102268.08
2017-09-28T10:25:45.260Z,102270.09
2017-09-28T10:28:13.592Z,102269.16
2017-09-28T10:30:41.894Z,102265.78
2017-09-28T10:33:10.982Z,102270.23
2017-09-28T10:35:39.280Z,102266.44
2017-09-28T10:38:08.358Z,102265.59
2017-09-28T10:40:36.846Z,102268.38
2017-09-28T10:43:05.195Z,102266.14
2017-09-28T10:45:33.660Z,102263.92
2017-09-28T10:48:01.970Z,102266.98
2017-09-28T10:50:30.278Z,102263.05
2017-09-28T10:52:58.608Z,102268.42
2017-09-28T10:55:27.024Z,102262.37
2017-09-28T10:57:55.326Z,102271.88
2017-09-28T11:00:23.635Z,102279.03
2017-09-28T11:02:51.953Z,102269.44
2017-09-28T11:05:20.276Z,102263.26
2017-09-28T11:07:48.597Z,102269.09
2017-09-28T11:10:16.912Z,102270.37
2017-09-28T11:12:45.447Z,102257.17
2017-09-28T11:15:14.528Z,102266.20
2017-09-28T11:17:43.599Z,102266.65
2017-09-28T11:20:11.926Z,102265.57
2017-09-28T11:22:41.022Z,102268.45
2017-09-28T11:25:10.118Z,102265.84
2017-09-28T11:27:39.198Z,102262.77
2017-09-28T11:30:07.493Z,102262.06
2017-09-28T11:32:36.593Z,102266.59
2017-09-28T11:35:05.656Z,102264.83
2017-09-28T11:37:33.964Z,102265.77
2017-09-28T11:40:02.281Z,102260.65
2017-09-28T11:42:30.594Z,102259.59
2017-09-28T11:44:58.913Z,102260.13
2017-09-28T11:47:27.973Z,102260.54
2017-09-28T11:49:56.295Z,102256.41
2017-09-28T11:52:25.370Z,102258.11
2017-09-28T11:54:54.465Z,102248.19
2017-09-28T11:57:22.809Z,102257.11
2017-09-28T11:59:51.124Z,102255.31
2017-09-28T12:02:19.463Z,102253.84
2017-09-28T12:04:47.764Z,102246.16
2017-09-28T12:07:16.074Z,102245.71
2017-09-28T12:09:44.404Z,102246.87
2017-09-28T12:12:12.716Z,102249.47
2017-09-28T12:14:41.025Z,102246.87
2017-09-28T12:17:09.352Z,102253.16
2017-09-28T12:19:37.671Z,102254.05
2017-09-28T12:22:05.980Z,102257.86
2017-09-28T12:24:34.315Z,102254.09
2017-09-28T12:27:02.708Z,102261.47
2017-09-28T12:29:31.213Z,102252.96
2017-09-28T12:31:59.525Z,102257.86
2017-09-28T12:34:28.593Z,102254.58
2017-09-28T12:36:56.911Z,102250.66
2017-09-28T12:39:25.993Z,102253.03
2017-09-28T12:41:54.317Z,102254.00
2017-09-28T12:44:22.621Z,102251.54
2017-09-28T12:46:50.920Z,102249.38
2017-09-28T12:49:19.245Z,102253.29
2017-09-28T12:51:48.969Z,102248.23
2017-09-28T12:54:17.295Z,102249.70
2017-09-28T12:56:45.630Z,102248.91
2017-09-28T12:59:13.931Z,102254.02
2017-09-28T13:01:42.266Z,102249.70
2017-09-28T13:04:11.362Z,102251.70
2017-09-28T13:06:39.695Z,102249.64
2017-09-28T13:09:08.011Z,102250.94
2017-09-28T13:11:36.317Z,102252.30
2017-09-28T13:14:05.467Z,102255.80
2017-09-28T13:16:33.780Z,102259.33
2017-09-28T13:19:02.094Z,102258.48
2017-09-28T13:21:31.192Z,102257.79
2017-09-28T13:24:00.275Z,102262.55
2017-09-28T13:26:28.597Z,102263.61
2017-09-28T13:28:56.975Z,102265.39
2017-09-28T13:31:25.280Z,102253.17
2017-09-28T13:33:53.593Z,102258.30
2017-09-28T13:36:21.926Z,102262.22
2017-09-28T13:38:50.249Z,102263.81
2017-09-28T13:41:18.609Z,102258.61
2017-09-28T13:43:46.916Z,102258.31
2017-09-28T13:46:15.245Z,102257.14
2017-09-28T13:48:43.554Z,102258.55
2017-09-28T13:51:11.886Z,102259.83
2017-09-28T13:53:40.983Z,102259.50
2017-09-28T13:56:10.065Z,102255.28
2017-09-28T13:58:38.374Z,102256.82
2017-09-28T14:01:07.472Z,102255.47
2017-09-28T14:03:36.548Z,102259.35
2017-09-28T14:06:04.860Z,102252.45
2017-09-28T14:08:33.192Z,102255.12
2017-09-28T14:11:01.505Z,102260.73
2017-09-28T14:13:30.580Z,102262.14
2017-09-28T14:15:59.007Z,102263.61
2017-09-28T14:18:27.345Z,102255.42
2017-09-28T14:20:55.670Z,102262.56
2017-09-28T14:23:23.996Z,102255.06
2017-09-28T14:25:52.307Z,102254.23
2017-09-28T14:28:20.630Z,102248.88
2017-09-28T14:30:49.178Z,102249.81
2017-09-28T14:33:17.482Z,102250.98
2017-09-28T14:35:45.801Z,102245.61
2017-09-28T14:38:14.131Z,102245.33
2017-09-28T14:40:43.248Z,102245.55
2017-09-28T14:43:11.545Z,102244.16
2017-09-28T14:45:39.871Z,102251.17
2017-09-28T14:48:08.206Z,102248.32
2017-09-28T14:50:37.352Z,102241.77
2017-09-28T14:53:05.677Z,102238.27
2017-09-28T14:55:33.968Z,102242.76
2017-09-28T14:58:02.283Z,102231.56
2017-09-28T15:00:30.599Z,102231.34
2017-09-28T15:02:59.677Z,102228.81
2017-09-28T15:05:27.998Z,102235.17
2017-09-28T15:07:57.113Z,102232.58
2017-09-28T15:10:25.439Z,102235.17
2017-09-28T15:12:53.784Z,102229.91
2017-09-28T15:15:22.092Z,102230.16
2017-09-28T15:17:50.424Z,102226.85
2017-09-28T15:20:18.740Z,102227.91
2017-09-28T15:22:47.119Z,102214.05
2017-09-28T15:25:15.434Z,102225.50
2017-09-28T15:27:43.754Z,102227.38
2017-09-28T15:30:12.098Z,102225.38
2017-09-28T15:32:40.432Z,102224.97
2017-09-28T15:35:08.749Z,102222.30
2017-09-28T15:37:37.051Z,102232.97
2017-09-28T15:40:05.378Z,102237.45
2017-09-28T15:42:33.704Z,102232.55
2017-09-28T15:45:02.021Z,102236.13
2017-09-28T15:47:31.095Z,102234.21
2017-09-28T15:49:59.434Z,102232.37
2017-09-28T15:52:27.789Z,102245.33
2017-09-28T15:54:56.068Z,102241.53
2017-09-28T15:57:25.164Z,102244.02
2017-09-28T15:59:54.221Z,102243.41
2017-09-28T16:02:22.521Z,102238.03
2017-09-28T16:04:50.863Z,102234.94
2017-09-28T16:07:19.177Z,102238.67
2017-09-28T16:09:47.494Z,102238.18
2017-09-28T16:12:15.824Z,102246.16
2017-09-28T16:14:44.130Z,102241.03
2017-09-28T16:17:12.429Z,102240.02
2017-09-28T16:19:41.523Z,102246.00
2017-09-28T16:22:10.654Z,102245.09
2017-09-28T16:24:38.991Z,102235.48
2017-09-28T16:27:07.304Z,102236.05
2017-09-28T16:29:35.610Z,102233.45
2017-09-28T16:32:03.927Z,102236.72
2017-09-28T16:34:32.266Z,102239.90
2017-09-28T16:37:00.571Z,102229.98
2017-09-28T16:39:28.863Z,102226.18
2017-09-28T16:41:57.182Z,102229.63
2017-09-28T16:44:26.276Z,102234.28
2017-09-28T16:46:55.379Z,102235.48
2017-09-28T16:49:24.482Z,102231.97
2017-09-28T16:51:53.567Z,102236.64
2017-09-28T16:54:22.828Z,102231.48
2017-09-28T16:56:51.141Z,102236.70
2017-09-28T16:59:20.246Z,102238.83
2017-09-28T17:01:50.053Z,102240.92
2017-09-28T17:04:18.340Z,102245.42
2017-09-28T17:06:46.666Z,102245.45
2017-09-28T17:09:14.993Z,102252.63
2017-09-28T17:11:43.310Z,102264.18
2017-09-28T17:14:12.412Z,102270.31
2017-09-28T17:16:41.520Z,102268.85
2017-09-28T17:19:09.835Z,102271.69
2017-09-28T17:21:38.135Z,102267.92
2017-09-28T17:24:06.460Z,102267.69
2017-09-28T17:26:35.540Z,102274.27
2017-09-28T17:29:04.607Z,102283.12
2017-09-28T17:31:32.924Z,102285.99
2017-09-28T17:34:01.997Z,102289.77
2017-09-28T17:36:30.437Z,102294.56
2017-09-28T17:38:58.773Z,102289.78
2017-09-28T17:41:27.106Z,102294.58
2017-09-28T17:43:55.421Z,102295.88
2017-09-28T17:46:23.735Z,102299.64
2017-09-28T17:48:52.817Z,102298.81
2017-09-28T17:51:21.133Z,102294.98
2017-09-28T17:53:49.438Z,102295.72
2017-09-28T17:56:17.751Z,102296.27
2017-09-28T17:58:46.097Z,102296.27
2017-09-28T18:01:14.404Z,102292.91
2017-09-28T18:03:42.707Z,102297.68
2017-09-28T18:06:11.022Z,102296.95
2017-09-28T18:08:39.334Z,102295.90
2017-09-28T18:11:07.673Z,102294.34
2017-09-28T18:13:36.750Z,102301.73
2017-09-28T18:16:05.817Z,102302.48
2017-09-28T18:18:35.171Z,102298.05
2017-09-28T18:21:04.261Z,102303.98
2017-09-28T18:23:32.570Z,102307.31
2017-09-28T18:26:00.882Z,102305.34
2017-09-28T18:28:29.199Z,102308.47
2017-09-28T18:30:57.528Z,102312.83
2017-09-28T18:33:25.829Z,102321.56
2017-09-28T18:35:54.185Z,102318.75
2017-09-28T18:38:22.483Z,102313.45
2017-09-28T18:40:50.785Z,102314.48
2017-09-28T18:43:19.112Z,102320.63
2017-09-28T18:45:48.183Z,102324.80
2017-09-28T18:48:16.487Z,102326.05
2017-09-28T18:50:45.587Z,102322.92
2017-09-28T18:53:14.676Z,102327.81
2017-09-28T18:55:42.990Z,102325.73
2017-09-28T18:58:11.293Z,102329.06
2017-09-28T19:00:39.614Z,102323.67
2017-09-28T19:03:08.714Z,102329.73
2017-09-28T19:05:37.036Z,102330.99
2017-09-28T19:08:05.341Z,102334.44
2017-09-28T19:10:33.667Z,102333.70
2017-09-28T19:13:01.981Z,102340.16
2017-09-28T19:15:30.299Z,102334.44
2017-09-28T19:17:58.613Z,102328.72
2017-09-28T19:20:27.294Z,102339.95
2017-09-28T19:22:55.613Z,102339.64
2017-09-28T19:25:23.929Z,102338.50
2017-09-28T19:27:52.229Z,102341.45
2017-09-28T19:30:20.573Z,102341.36
2017-09-28T19:32:48.868Z,102337.09
2017-09-28T19:35:17.883Z,102345.73
2017-09-28T19:37:46.207Z,102334.92
2017-09-28T19:40:15.282Z,102333.82
2017-09-28T19:42:43.597Z,102336.53
2017-09-28T19:45:11.923Z,102338.51
2017-09-28T19:47:40.239Z,102337.16
2017-09-28T19:50:08.557Z,102342.98
2017-09-28T19:52:37.582Z,102341.02
2017-09-28T19:55:05.889Z,102347.56
2017-09-28T19:57:34.219Z,102345.59
2017-09-28T20:00:02.538Z,102341.34
2017-09-28T20:02:30.836Z,102341.75
2017-09-28T20:04:59.158Z,102338.84
2017-09-28T20:07:27.493Z,102341.55
2017-09-28T20:09:55.811Z,102340.82
2017-09-28T20:12:24.140Z,102341.27
2017-09-28T20:14:52.464Z,102343.66
2017-09-28T20:17:21.539Z,102339.41
2017-09-28T20:19:50.626Z,102333.48
2017-09-28T20:22:18.935Z,102335.35
2017-09-28T20:24:47.252Z,102333.27
2017-09-28T20:27:15.583Z,102335.88
2017-09-28T20:29:45.500Z,102332.86
2017-09-28T20:32:13.805Z,102332.27
2017-09-28T20:34:42.893Z,102329.57
2017-09-28T20:37:11.215Z,102329.27
2017-09-28T20:39:39.525Z,102330.81
2017-09-28T20:42:07.837Z,102327.08
2017-09-28T20:44:36.159Z,102329.67
2017-09-28T20:47:04.462Z,102333.66
2017-09-28T20:49:32.775Z,102332.93
2017-09-28T20:52:01.110Z,102335.94
2017-09-28T20:54:30.019Z,102339.47
2017-09-28T20:56:58.331Z,102333.65
2017-09-28T20:59:27.412Z,102336.69
2017-09-28T21:01:55.766Z,102333.89
2017-09-28T21:04:24.125Z,102336.48
2017-09-28T21:06:53.213Z,102331.70
2017-09-28T21:09:22.325Z,102328.37
2017-09-28T21:11:51.398Z,102324.22
2017-09-28T21:14:19.710Z,102325.50
2017-09-28T21:16:48.025Z,102327.57
2017-09-28T21:19:16.371Z,102327.78
2017-09-28T21:21:44.666Z,102329.44
2017-09-28T21:24:12.965Z,102333.80
2017-09-28T21:26:41.277Z,102330.05
2017-09-28T21:29:09.602Z,102320.32
2017-09-28T21:31:37.899Z,102324.58
2017-09-28T21:34:06.244Z,102323.64
2017-09-28T21:36:35.335Z,102328.83
2017-09-28T21:39:03.649Z,102327.89
2017-09-28T21:41:31.959Z,102321.97
2017-09-28T21:44:00.340Z,102322.59
2017-09-28T21:46:28.642Z,102317.71
2017-09-28T21:48:56.945Z,102326.53
2017-09-28T21:51:26.032Z,102316.08
2017-09-28T21:53:54.545Z,102321.23
2017-09-28T21:56:23.612Z,102312.61
2017-09-28T21:58:51.920Z,102315.09
2017-09-28T22:01:20.986Z,102317.58
2017-09-28T22:03:49.309Z,102316.53
2017-09-28T22:06:18.373Z,102319.23
2017-09-28T22:08:46.682Z,102318.33
2017-09-28T22:11:15.789Z,102322.98
2017-09-28T22:13:44.859Z,102316.23
2017-09-28T22:16:13.168Z,102317.27
2017-09-28T22:18:42.241Z,102316.74
2017-09-28T22:21:10.589Z,102318.11
2017-09-28T22:23:38.959Z,102319.87
2017-09-28T22:26:07.281Z,102319.45
2017-09-28T22:28:35.614Z,102320.06
2017-09-28T22:31:03.940Z,102318.83
2017-09-28T22:33:32.256Z,102317.78
2017-09-28T22:36:01.325Z,102316.23
2017-09-28T22:38:29.625Z,102316.33
2017-09-28T22:40:57.937Z,102315.59
2017-09-28T22:43:26.241Z,102310.10
2017-09-28T22:45:54.542Z,102307.51
2017-09-28T22:48:22.874Z,102311.86
2017-09-28T22:50:51.940Z,102308.64
2017-09-28T22:53:20.257Z,102302.65
2017-09-28T22:55:48.571Z,102298.91
2017-09-28T22:58:16.902Z,102293.09
2017-09-28T23:00:45.970Z,102297.66
2017-09-28T23:03:14.274Z,102295.48
2017-09-28T23:05:42.595Z,102300.66
2017-09-28T23:08:10.906Z,102297.23
2017-09-28T23:10:39.219Z,102297.34
2017-09-28T23:13:08.230Z,102296.70
2017-09-28T23:15:37.314Z,102295.98
2017-09-28T23:18:05.642Z,102287.39
2017-09-28T23:20:33.964Z,102289.23
2017-09-28T23:23:02.262Z,102283.12
2017-09-28T23:25:30.591Z,102283.84
2017-09-28T23:27:58.902Z,102278.33
2017-09-28T23:30:27.195Z,102283.61
2017-09-28T23:32:56.346Z,102284.02
2017-09-28T23:35:24.704Z,102273.16
2017-09-28T23:37:53.802Z,102277.92
2017-09-28T23:40:22.864Z,102275.11
2017-09-28T23:42:51.184Z,102268.58
2017-09-28T23:45:20.280Z,102266.70
2017-09-28T23:47:49.472Z,102270.42
2017-09-28T23:50:19.378Z,102267.83
2017-09-28T23:52:47.701Z,102276.34
2017-09-28T23:55:16.026Z,102272.91
2017-09-28T23:57:44.329Z,102272.39
